King of Scandinavia — OVOL2 — position and weather

sailwx.info

Track history (hours):
 
Tides and Currents Weather Stations Pressure Air Temp Water Temp Dewpoint Dewpoint Depression Visibility Wind Speed Wind Dir Waves Ship Positions

King of Scandinavia

Ship's website: http://www.dfds.co.uk/DSW/EN/OnBoard/na/KING.htm

Last reported at 2018-Jul-22 07:00 UTC. Time now 2018-Jul-22 07:06 UTC.
Position N 52°28' E 004°29'.

Length 166 m; beam 27.6 m; draft 6.2 m.

Type: Ship. MMSI: 220449000.

Date/timePositionNaut miles runAvg speedWind from/ knotsBaromVisibWave heightAir tempDewpointWater temp
2018-Jul-22 07:00N 52°28' E 004°29'714.6
2018-Jul-22 06:30N 52°34' E 004°20'815.4
2018-Jul-22 06:00N 52°39' E 004°11'816.0
2018-Jul-22 05:30N 52°44' E 004°01'816.2
2018-Jul-22 05:00N 52°49' E 003°51'816.2
2018-Jul-22 04:30N 52°55' E 003°41'816.4
2018-Jul-22 04:00N 53°00' E 003°31'916.6
2018-Jul-22 03:29N 53°05' E 003°19'20018.3
2018-Jul-21 16:33N 54°60' W 001°20'118.0
2018-Jul-21 16:30N 54°60' W 001°21'4 7.2
2018-Jul-21 16:01N 54°59' W 001°27'0 0.1
2018-Jul-21 15:27N 54°59' W 001°27'0 0.0
2018-Jul-21 14:56N 54°59' W 001°27'0 0.0
2018-Jul-21 14:29N 54°59' W 001°27'0 0.0
2018-Jul-21 13:05N 54°59' W 001°27'0 0.0
2018-Jul-21 12:56N 54°59' W 001°27'0 0.0
2018-Jul-21 12:26N 54°59' W 001°27'0 0.0
2018-Jul-21 11:59N 54°59' W 001°27'0 0.0
2018-Jul-21 11:29N 54°59' W 001°27'0 0.0
2018-Jul-21 10:59N 54°59' W 001°27'0 0.0
2018-Jul-21 10:23N 54°59' W 001°27'0 0.0
2018-Jul-21 09:59N 54°59' W 001°27'0 0.0
2018-Jul-21 09:29N 54°59' W 001°27'0 0.0
2018-Jul-21 08:59N 54°59' W 001°27'0 0.0
2018-Jul-21 08:29N 54°59' W 001°27'1 1.1
2018-Jul-21 07:59N 54°60' W 001°27'510.0
2018-Jul-21 07:30N 54°59' W 001°18'815.6
2018-Jul-21 07:00N 54°55' W 001°07'15816.3
2018-Jul-20 21:16N 53°27' E 002°38'517.6
2018-Jul-20 21:00N 53°24' E 002°44'917.7
2018-Jul-20 20:30N 53°18' E 002°55'917.6
2018-Jul-20 20:00N 53°12' E 003°06'917.3
2018-Jul-20 19:30N 53°07' E 003°17'917.3
2018-Jul-20 19:00N 53°01' E 003°28'916.9
2018-Jul-20 18:30N 52°55' E 003°39'816.4
2018-Jul-20 18:00N 52°50' E 003°49'815.9
2018-Jul-20 17:30N 52°45' E 003°59'815.6
2018-Jul-20 17:00N 52°40' E 004°09'815.4
2018-Jul-20 16:30N 52°35' E 004°18'815.1
2018-Jul-20 16:00N 52°30' E 004°27'5 9.5
2018-Jul-20 15:28N 52°28' E 004°35'0 0.0
2018-Jul-20 15:00N 52°28' E 004°35'0 0.0
2018-Jul-20 14:29N 52°28' E 004°35'0 0.0
2018-Jul-20 13:59N 52°28' E 004°35'0 0.0
2018-Jul-20 13:29N 52°28' E 004°35'0 0.0
2018-Jul-20 12:59N 52°28' E 004°35'0 0.0
2018-Jul-20 12:29N 52°28' E 004°35'0 0.0
2018-Jul-20 11:59N 52°28' E 004°35'0 0.0
2018-Jul-20 11:29N 52°28' E 004°35'0 0.0
2018-Jul-20 10:59N 52°28' E 004°35'0 0.0
2018-Jul-20 10:29N 52°28' E 004°35'0 0.0
2018-Jul-20 09:59N 52°28' E 004°35'0 0.0
2018-Jul-20 09:29N 52°28' E 004°35'0 0.0
2018-Jul-20 08:59N 52°28' E 004°35'0 0.0
2018-Jul-20 08:29N 52°28' E 004°35'0 0.0
2018-Jul-20 07:56N 52°28' E 004°35'0 0.4
2018-Jul-20 07:30N 52°28' E 004°35'510.4
2018-Jul-20 07:01N 52°30' E 004°27'714.9
2018-Jul-20 06:31N 52°35' E 004°19'815.2
2018-Jul-20 06:01N 52°40' E 004°09'714.8
2018-Jul-20 05:31N 52°45' E 003°60'815.4
2018-Jul-20 05:00N 52°50' E 003°50'815.5
2018-Jul-20 04:31N 52°55' E 003°40'815.6
2018-Jul-20 04:00N 52°60' E 003°30'815.5
2018-Jul-20 03:30N 53°05' E 003°20'815.7
2018-Jul-20 03:00N 53°09' E 003°10'815.9
2018-Jul-20 02:31N 53°14' E 002°59'918.3
2018-Jul-20 02:01N 53°19' E 002°47'918.9
2018-Jul-20 01:30N 53°25' E 002°34'918.7
2018-Jul-20 01:00N 53°31' E 002°21'918.6
2018-Jul-20 00:30N 53°36' E 002°08'918.5
2018-Jul-20 00:01N 53°41' E 001°55'918.7
2018-Jul-19 23:30N 53°47' E 001°43'918.8
2018-Jul-19 23:01N 53°52' E 001°30'1018.9
2018-Jul-19 22:30N 53°58' E 001°17'918.7
2018-Jul-19 22:01N 54°03' E 001°05'918.3
2018-Jul-19 21:30N 54°09' E 000°51'918.3
2018-Jul-19 21:00N 54°14' E 000°38'918.4
2018-Jul-19 20:30N 54°19' E 000°25'918.8
2018-Jul-19 20:00N 54°24' E 000°12'1018.4
2018-Jul-19 19:29N 54°29' W 000°02'918.3
2018-Jul-19 19:01N 54°34' W 000°14'4517.8
2018-Jul-19 16:28N 54°59' W 001°19'4 9.3
2018-Jul-19 16:00N 54°60' W 001°27'0 0.4
2018-Jul-19 15:29N 54°59' W 001°27'0 0.0
2018-Jul-19 14:59N 54°59' W 001°27'0 0.0
2018-Jul-19 14:28N 54°59' W 001°27'0 0.0
2018-Jul-19 13:30N 54°59' W 001°27'0 0.0
2018-Jul-19 12:59N 54°59' W 001°27'0 0.0
2018-Jul-19 12:30N 54°59' W 001°27'0 0.0
2018-Jul-19 11:54N 54°59' W 001°27'0 0.0
2018-Jul-19 11:30N 54°59' W 001°27'0 0.0
2018-Jul-19 11:00N 54°59' W 001°27'0 0.0
2018-Jul-19 10:30N 54°59' W 001°27'0 0.0
2018-Jul-19 10:00N 54°59' W 001°27'0 0.0
2018-Jul-19 09:30N 54°59' W 001°27'0 0.0
2018-Jul-19 09:00N 54°59' W 001°27'0 0.0
2018-Jul-19 08:30N 54°59' W 001°27'1 2.2
2018-Jul-19 08:00N 55°00' W 001°26'612.4
2018-Jul-19 07:30N 54°59' W 001°16'10417.4
2018-Jul-19 01:30N 54°01' E 001°13'2014.9
2018-Jul-19 00:11N 53°49' E 001°39'414.3
2018-Jul-18 23:56N 53°47' E 001°45'814.4
2018-Jul-18 23:24N 53°44' E 001°57'615.0
2018-Jul-18 22:58N 53°41' E 002°06'916.3
2018-Jul-18 22:26N 53°36' E 002°19'715.3
2018-Jul-18 21:59N 53°32' E 002°28'1015.0
2018-Jul-18 21:18N 53°25' E 002°41'515.5
2018-Jul-18 21:00N 53°22' E 002°47'1115.7
2018-Jul-18 20:16N 53°15' E 003°01'915.9
2018-Jul-18 19:43N 53°09' E 003°13'315.9
2018-Jul-18 19:30N 53°07' E 003°17'815.8
2018-Jul-18 19:00N 53°02' E 003°28'815.8
2018-Jul-18 18:30N 52°57' E 003°38'815.8
2018-Jul-18 18:00N 52°52' E 003°48'815.6
2018-Jul-18 17:30N 52°47' E 003°58'815.4
2018-Jul-18 17:00N 52°41' E 004°06'815.3
2018-Jul-18 16:30N 52°36' E 004°16'815.0
2018-Jul-18 16:00N 52°31' E 004°25'713.3
2018-Jul-18 15:31N 52°28' E 004°34'1 1.1
2018-Jul-18 15:00N 52°28' E 004°35'0 0.0
2018-Jul-18 14:29N 52°28' E 004°35'0 0.0
2018-Jul-18 13:30N 52°28' E 004°35'0 0.0
2018-Jul-18 13:00N 52°28' E 004°35'0 0.0
2018-Jul-18 12:30N 52°28' E 004°35'0 0.0
2018-Jul-18 12:00N 52°28' E 004°35'0 0.0
2018-Jul-18 11:30N 52°28' E 004°35'0 0.0
2018-Jul-18 10:30N 52°28' E 004°35'0 0.0
2018-Jul-18 10:00N 52°28' E 004°35'0 0.0
2018-Jul-18 09:30N 52°28' E 004°35'0 0.0
2018-Jul-18 09:00N 52°28' E 004°35'0 0.0
2018-Jul-18 08:30N 52°28' E 004°35'0 0.0
2018-Jul-18 08:00N 52°28' E 004°35'0 0.1
2018-Jul-18 07:30N 52°28' E 004°35'5 9.5
2018-Jul-18 07:01N 52°29' E 004°28'714.7
2018-Jul-18 06:30N 52°35' E 004°19'814.7
2018-Jul-18 05:59N 52°40' E 004°10'1015.2
2018-Jul-18 05:21N 52°46' E 003°58'615.3
2018-Jul-18 04:58N 52°50' E 003°50'815.3
2018-Jul-18 04:28N 52°55' E 003°41'715.3
2018-Jul-18 04:01N 52°59' E 003°32'915.4
2018-Jul-18 03:24N 53°06' E 003°20'615.4
2018-Jul-18 02:59N 53°09' E 003°11'815.7
2018-Jul-18 02:30N 53°13' E 003°01'815.9
2018-Jul-18 02:01N 53°18' E 002°50'816.1
2018-Jul-18 01:31N 53°23' E 002°39'816.3
2018-Jul-18 01:01N 53°28' E 002°28'916.4
2018-Jul-18 00:28N 53°33' E 002°16'15318.6
2018-Jul-17 16:15N 54°59' W 001°19'410.0
2018-Jul-17 15:49N 54°60' W 001°27'0 0.1
2018-Jul-17 09:07N 54°59' W 001°27'0 0.0
2018-Jul-17 08:55N 54°59' W 001°27'0 0.0
2018-Jul-17 08:22N 54°59' W 001°27'0 0.0
2018-Jul-17 08:00N 54°59' W 001°27'3 7.0
2018-Jul-17 07:30N 55°01' W 001°21'918.2
2018-Jul-17 07:00N 54°56' W 001°08'15616.5
2018-Jul-16 21:33N 53°29' E 002°33'214.4
2018-Jul-16 21:24N 53°27' E 002°36'614.8
2018-Jul-16 21:00N 53°24' E 002°43'1615.2
2018-Jul-16 19:59N 53°14' E 003°04'815.7
2018-Jul-16 19:30N 53°09' E 003°13'816.2
2018-Jul-16 19:00N 53°04' E 003°23'816.4
2018-Jul-16 18:30N 52°59' E 003°34'816.5
2018-Jul-16 18:00N 52°53' E 003°45'816.6
2018-Jul-16 17:30N 52°48' E 003°55'1216.5
2018-Jul-16 16:46N 52°40' E 004°10'616.2
2018-Jul-16 16:24N 52°36' E 004°18'615.9
2018-Jul-16 16:00N 52°32' E 004°25'713.9
2018-Jul-16 15:30N 52°28' E 004°34'0 0.9
2018-Jul-16 15:00N 52°28' E 004°35'0 0.0
2018-Jul-16 14:31N 52°28' E 004°35'0 0.0
2018-Jul-16 14:00N 52°28' E 004°35'0 0.0
2018-Jul-16 13:30N 52°28' E 004°35'0 0.0
2018-Jul-16 13:00N 52°28' E 004°35'0 0.0
2018-Jul-16 12:31N 52°28' E 004°35'0 0.0
2018-Jul-16 12:00N 52°28' E 004°35'0 0.0
2018-Jul-16 11:30N 52°28' E 004°35'0 0.0
2018-Jul-16 11:00N 52°28' E 004°35'0 0.0
2018-Jul-16 10:31N 52°28' E 004°35'0 0.0
2018-Jul-16 10:00N 52°28' E 004°35'0 0.0
2018-Jul-16 09:30N 52°28' E 004°35'0 0.0
2018-Jul-16 09:00N 52°28' E 004°35'0 0.0
2018-Jul-16 08:30N 52°28' E 004°35'0 0.0
2018-Jul-16 08:00N 52°28' E 004°35'0 0.1
2018-Jul-16 07:30N 52°28' E 004°35'3 7.0
2018-Jul-16 07:00N 52°29' E 004°30'612.0
2018-Jul-16 06:30N 52°33' E 004°22'713.7
2018-Jul-16 06:00N 52°38' E 004°14'715.0
2018-Jul-16 05:30N 52°42' E 004°05'815.0
2018-Jul-16 05:00N 52°47' E 003°55'814.9
2018-Jul-16 04:30N 52°52' E 003°46'714.3
2018-Jul-16 04:00N 52°57' E 003°37'816.1
2018-Jul-16 03:30N 53°02' E 003°27'917.0
2018-Jul-16 03:00N 53°07' E 003°15'816.9
2018-Jul-16 02:30N 53°12' E 003°04'917.0
2018-Jul-16 02:00N 53°17' E 002°52'817.2
2018-Jul-16 01:30N 53°22' E 002°41'917.1
2018-Jul-16 01:00N 53°27' E 002°29'917.1
2018-Jul-16 00:30N 53°32' E 002°18'917.1
2018-Jul-16 00:00N 53°37' E 002°06'917.7
2018-Jul-15 23:30N 53°42' E 001°54'917.9
2018-Jul-15 23:00N 53°48' E 001°41'918.1
2018-Jul-15 22:30N 53°53' E 001°29'918.4
2018-Jul-15 22:00N 53°58' E 001°17'918.3
2018-Jul-15 21:31N 54°04' E 001°05'918.5
2018-Jul-15 21:00N 54°09' E 000°51'918.5
2018-Jul-15 20:30N 54°14' E 000°38'918.7
2018-Jul-15 20:01N 54°19' E 000°25'1018.9
2018-Jul-15 19:30N 54°24' E 000°11'919.1
2018-Jul-15 19:01N 54°30' W 000°02'1019.1
2018-Jul-15 18:30N 54°35' W 000°16'4019.0
2018-Jul-15 16:24N 54°56' W 001°15'717.9
2018-Jul-15 16:01N 55°01' W 001°24'2 4.3
2018-Jul-15 15:30N 54°59' W 001°27'0 0.0
2018-Jul-15 12:00N 54°59' W 001°27'0 0.0
2018-Jul-15 11:24N 54°59' W 001°27'0 0.0
2018-Jul-15 11:00N 54°59' W 001°27'0 0.0
2018-Jul-15 10:30N 54°59' W 001°27'0 0.0
2018-Jul-15 10:00N 54°59' W 001°27'0 0.0
2018-Jul-15 09:30N 54°59' W 001°27'0 0.0
2018-Jul-15 09:00N 54°59' W 001°27'0 0.0
2018-Jul-15 08:30N 54°59' W 001°27'1 1.8
2018-Jul-15 07:58N 55°00' W 001°26'714.1
2018-Jul-15 07:30N 54°59' W 001°15'3617.0
2018-Jul-15 05:24N 54°38' W 000°24'616.3
2018-Jul-15 05:00N 54°35' W 000°15'816.3
2018-Jul-15 04:30N 54°30' W 000°04'816.4
2018-Jul-15 04:00N 54°25' E 000°08'816.7
2018-Jul-15 03:30N 54°21' E 000°20'1017.4
2018-Jul-15 02:55N 54°15' E 000°35'1018.1
2018-Jul-15 02:21N 54°10' E 000°50'1519.1
2018-Jul-15 01:33N 54°01' E 001°11'619.4
2018-Jul-15 01:15N 53°58' E 001°19'519.3
2018-Jul-15 01:00N 53°55' E 001°25'1018.3
2018-Jul-15 00:29N 53°49' E 001°38'816.8
2018-Jul-15 00:00N 53°45' E 001°51'816.4
2018-Jul-14 23:30N 53°42' E 002°03'815.9
2018-Jul-14 23:00N 53°38' E 002°15'815.2
2018-Jul-14 22:29N 53°33' E 002°25'714.5
2018-Jul-14 22:00N 53°28' E 002°34'714.5
2018-Jul-14 21:30N 53°24' E 002°43'914.6
2018-Jul-14 20:55N 53°18' E 002°54'814.4
2018-Jul-14 20:23N 53°13' E 003°04'514.5
2018-Jul-14 20:00N 53°09' E 003°11'814.7
2018-Jul-14 19:29N 53°05' E 003°21'815.0
2018-Jul-14 18:56N 52°59' E 003°31'1615.6
2018-Jul-14 17:56N 52°49' E 003°51'815.9
2018-Jul-14 17:24N 52°44' E 004°02'615.9
2018-Jul-14 16:59N 52°40' E 004°10'815.9
2018-Jul-14 16:30N 52°35' E 004°20'816.0
2018-Jul-14 16:00N 52°29' E 004°29'4 7.9
2018-Jul-14 15:30N 52°28' E 004°35'0 0.0
2018-Jul-14 15:00N 52°28' E 004°35'0 0.0
2018-Jul-14 14:30N 52°28' E 004°35'0 0.0
2018-Jul-14 13:30N 52°28' E 004°35'0 0.0
2018-Jul-14 12:59N 52°28' E 004°35'0 0.0
2018-Jul-14 12:30N 52°28' E 004°35'0 0.0
2018-Jul-14 12:00N 52°28' E 004°35'0 0.0
2018-Jul-14 11:30N 52°28' E 004°35'0 0.0
2018-Jul-14 11:00N 52°28' E 004°35'0 0.0
2018-Jul-14 10:30N 52°28' E 004°35'0 0.0
2018-Jul-14 10:00N 52°28' E 004°35'0 0.0
2018-Jul-14 09:30N 52°28' E 004°35'0 0.0
2018-Jul-14 09:00N 52°28' E 004°35'0 0.0
2018-Jul-14 08:30N 52°28' E 004°35'0 0.0
2018-Jul-14 08:00N 52°28' E 004°35'0 0.2
2018-Jul-14 07:30N 52°28' E 004°35'4 7.8
2018-Jul-14 07:00N 52°29' E 004°29'815.1
2018-Jul-14 06:30N 52°34' E 004°20'917.1
2018-Jul-14 06:00N 52°40' E 004°10'917.1
2018-Jul-14 05:29N 52°46' E 003°58'916.9
2018-Jul-14 04:58N 52°52' E 003°48'816.8
2018-Jul-14 04:30N 52°57' E 003°38'916.9
2018-Jul-14 03:57N 53°02' E 003°26'818.6
2018-Jul-14 03:30N 53°07' E 003°15'6318.0
2018-Jul-14 00:00N 53°44' E 001°49'3518.1
2018-Jul-13 22:04N 54°05' E 001°01'218.5
2018-Jul-13 21:56N 54°06' E 000°58'818.5
2018-Jul-13 21:30N 54°11' E 000°46'918.3
2018-Jul-13 21:00N 54°16' E 000°33'917.4
2018-Jul-13 20:30N 54°20' E 000°21'917.1
2018-Jul-13 20:00N 54°25' E 000°09'917.4
2018-Jul-13 19:30N 54°30' W 000°04'917.6
2018-Jul-13 19:00N 54°35' W 000°16'918.0
2018-Jul-13 18:30N 54°40' W 000°29'3318.4
2018-Jul-13 16:41N 54°59' W 001°18'317.9
2018-Jul-13 16:30N 55°00' W 001°22'3 5.8
2018-Jul-13 16:00N 54°59' W 001°27'0 0.0
2018-Jul-13 15:30N 54°59' W 001°27'0 0.0
2018-Jul-13 14:57N 54°59' W 001°27'0 0.0
2018-Jul-13 13:57N 54°59' W 001°27'0 0.0
2018-Jul-13 13:27N 54°59' W 001°27'0 0.0
2018-Jul-13 13:00N 54°59' W 001°27'0 0.0
2018-Jul-13 08:57N 54°59' W 001°27'0 0.0
2018-Jul-13 08:17N 54°59' W 001°27'1 2.4
2018-Jul-13 07:57N 55°00' W 001°27'410.0
2018-Jul-13 07:30N 55°00' W 001°19'917.1
2018-Jul-13 07:00N 54°55' W 001°06'3016.9
2018-Jul-13 05:14N 54°38' W 000°24'516.8
2018-Jul-13 04:55N 54°35' W 000°16'716.7
2018-Jul-13 04:30N 54°31' W 000°07'816.4
2018-Jul-13 04:00N 54°27' E 000°05'816.6
2018-Jul-13 03:30N 54°22' E 000°17'916.6
2018-Jul-13 02:58N 54°17' E 000°30'11717.8
2018-Jul-12 20:24N 53°10' E 003°11'715.2
2018-Jul-12 19:55N 53°05' E 003°20'614.3
2018-Jul-12 19:30N 53°01' E 003°28'714.3
2018-Jul-12 19:00N 52°56' E 003°36'714.4
2018-Jul-12 18:30N 52°51' E 003°45'714.5
2018-Jul-12 18:00N 52°47' E 003°55'714.8
2018-Jul-12 17:30N 52°42' E 004°04'815.0
2018-Jul-12 17:00N 52°38' E 004°14'815.2
2018-Jul-12 16:30N 52°32' E 004°23'714.9
2018-Jul-12 16:00N 52°28' E 004°33'1 2.4
2018-Jul-12 15:27N 52°28' E 004°35'0 0.0
2018-Jul-12 15:00N 52°28' E 004°35'0 0.0
2018-Jul-12 14:28N 52°28' E 004°35'0 0.0
2018-Jul-12 13:58N 52°28' E 004°35'0 0.0
2018-Jul-12 13:28N 52°28' E 004°35'0 0.0
2018-Jul-12 12:58N 52°28' E 004°35'0 0.0
2018-Jul-12 12:28N 52°28' E 004°35'0 0.0
2018-Jul-12 11:58N 52°28' E 004°35'0 0.0
2018-Jul-12 11:28N 52°28' E 004°35'0 0.0
2018-Jul-12 10:58N 52°28' E 004°35'0 0.0
2018-Jul-12 10:28N 52°28' E 004°35'0 0.0
2018-Jul-12 09:58N 52°28' E 004°35'0 0.0
2018-Jul-12 09:28N 52°28' E 004°35'0 0.0
2018-Jul-12 08:58N 52°28' E 004°35'0 0.0
2018-Jul-12 08:28N 52°28' E 004°35'0 0.0
2018-Jul-12 07:58N 52°28' E 004°35'0 0.0
2018-Jul-12 07:30N 52°28' E 004°35'3 6.5
2018-Jul-12 07:00N 52°28' E 004°30'  
Track history (hours):
 
Tides and Currents Weather Stations Pressure Air Temp Water Temp Dewpoint Dewpoint Depression Visibility Wind Speed Wind Dir Waves Ship Positions

King of Scandinavia

Ship's website: http://www.dfds.co.uk/DSW/EN/OnBoard/na/KING.htm

Last reported at 2018-Jul-22 07:00 UTC. Time now 2018-Jul-22 07:06 UTC.
Position N 52°28' E 004°29'.

Length 166 m; beam 27.6 m; draft 6.2 m.

Type: Ship. MMSI: 220449000.

Date/timePositionNaut miles runAvg speedWind from/ knotsBaromVisibWave heightAir tempDewpointWater temp
2018-Jul-22 07:00N 52°28' E 004°29'714.6
2018-Jul-22 06:30N 52°34' E 004°20'815.4
2018-Jul-22 06:00N 52°39' E 004°11'816.0
2018-Jul-22 05:30N 52°44' E 004°01'816.2
2018-Jul-22 05:00N 52°49' E 003°51'816.2
2018-Jul-22 04:30N 52°55' E 003°41'816.4
2018-Jul-22 04:00N 53°00' E 003°31'916.6
2018-Jul-22 03:29N 53°05' E 003°19'20018.3
2018-Jul-21 16:33N 54°60' W 001°20'118.0
2018-Jul-21 16:30N 54°60' W 001°21'4 7.2
2018-Jul-21 16:01N 54°59' W 001°27'0 0.1
2018-Jul-21 15:27N 54°59' W 001°27'0 0.0
2018-Jul-21 14:56N 54°59' W 001°27'0 0.0
2018-Jul-21 14:29N 54°59' W 001°27'0 0.0
2018-Jul-21 13:05N 54°59' W 001°27'0 0.0
2018-Jul-21 12:56N 54°59' W 001°27'0 0.0
2018-Jul-21 12:26N 54°59' W 001°27'0 0.0
2018-Jul-21 11:59N 54°59' W 001°27'0 0.0
2018-Jul-21 11:29N 54°59' W 001°27'0 0.0
2018-Jul-21 10:59N 54°59' W 001°27'0 0.0
2018-Jul-21 10:23N 54°59' W 001°27'0 0.0
2018-Jul-21 09:59N 54°59' W 001°27'0 0.0
2018-Jul-21 09:29N 54°59' W 001°27'0 0.0
2018-Jul-21 08:59N 54°59' W 001°27'0 0.0
2018-Jul-21 08:29N 54°59' W 001°27'1 1.1
2018-Jul-21 07:59N 54°60' W 001°27'510.0
2018-Jul-21 07:30N 54°59' W 001°18'815.6
2018-Jul-21 07:00N 54°55' W 001°07'15816.3
2018-Jul-20 21:16N 53°27' E 002°38'517.6
2018-Jul-20 21:00N 53°24' E 002°44'917.7
2018-Jul-20 20:30N 53°18' E 002°55'917.6
2018-Jul-20 20:00N 53°12' E 003°06'917.3
2018-Jul-20 19:30N 53°07' E 003°17'917.3
2018-Jul-20 19:00N 53°01' E 003°28'916.9
2018-Jul-20 18:30N 52°55' E 003°39'816.4
2018-Jul-20 18:00N 52°50' E 003°49'815.9
2018-Jul-20 17:30N 52°45' E 003°59'815.6
2018-Jul-20 17:00N 52°40' E 004°09'815.4
2018-Jul-20 16:30N 52°35' E 004°18'815.1
2018-Jul-20 16:00N 52°30' E 004°27'5 9.5
2018-Jul-20 15:28N 52°28' E 004°35'0 0.0
2018-Jul-20 15:00N 52°28' E 004°35'0 0.0
2018-Jul-20 14:29N 52°28' E 004°35'0 0.0
2018-Jul-20 13:59N 52°28' E 004°35'0 0.0
2018-Jul-20 13:29N 52°28' E 004°35'0 0.0
2018-Jul-20 12:59N 52°28' E 004°35'0 0.0
2018-Jul-20 12:29N 52°28' E 004°35'0 0.0
2018-Jul-20 11:59N 52°28' E 004°35'0 0.0
2018-Jul-20 11:29N 52°28' E 004°35'0 0.0
2018-Jul-20 10:59N 52°28' E 004°35'0 0.0
2018-Jul-20 10:29N 52°28' E 004°35'0 0.0
2018-Jul-20 09:59N 52°28' E 004°35'0 0.0
2018-Jul-20 09:29N 52°28' E 004°35'0 0.0
2018-Jul-20 08:59N 52°28' E 004°35'0 0.0
2018-Jul-20 08:29N 52°28' E 004°35'0 0.0
2018-Jul-20 07:56N 52°28' E 004°35'0 0.4
2018-Jul-20 07:30N 52°28' E 004°35'510.4
2018-Jul-20 07:01N 52°30' E 004°27'714.9
2018-Jul-20 06:31N 52°35' E 004°19'815.2
2018-Jul-20 06:01N 52°40' E 004°09'714.8
2018-Jul-20 05:31N 52°45' E 003°60'815.4
2018-Jul-20 05:00N 52°50' E 003°50'815.5
2018-Jul-20 04:31N 52°55' E 003°40'815.6
2018-Jul-20 04:00N 52°60' E 003°30'815.5
2018-Jul-20 03:30N 53°05' E 003°20'815.7
2018-Jul-20 03:00N 53°09' E 003°10'815.9
2018-Jul-20 02:31N 53°14' E 002°59'918.3
2018-Jul-20 02:01N 53°19' E 002°47'918.9
2018-Jul-20 01:30N 53°25' E 002°34'918.7
2018-Jul-20 01:00N 53°31' E 002°21'918.6
2018-Jul-20 00:30N 53°36' E 002°08'918.5
2018-Jul-20 00:01N 53°41' E 001°55'918.7
2018-Jul-19 23:30N 53°47' E 001°43'918.8
2018-Jul-19 23:01N 53°52' E 001°30'1018.9
2018-Jul-19 22:30N 53°58' E 001°17'918.7
2018-Jul-19 22:01N 54°03' E 001°05'918.3
2018-Jul-19 21:30N 54°09' E 000°51'918.3
2018-Jul-19 21:00N 54°14' E 000°38'918.4
2018-Jul-19 20:30N 54°19' E 000°25'918.8
2018-Jul-19 20:00N 54°24' E 000°12'1018.4
2018-Jul-19 19:29N 54°29' W 000°02'918.3
2018-Jul-19 19:01N 54°34' W 000°14'4517.8
2018-Jul-19 16:28N 54°59' W 001°19'4 9.3
2018-Jul-19 16:00N 54°60' W 001°27'0 0.4
2018-Jul-19 15:29N 54°59' W 001°27'0 0.0
2018-Jul-19 14:59N 54°59' W 001°27'0 0.0
2018-Jul-19 14:28N 54°59' W 001°27'0 0.0
2018-Jul-19 13:30N 54°59' W 001°27'0 0.0
2018-Jul-19 12:59N 54°59' W 001°27'0 0.0
2018-Jul-19 12:30N 54°59' W 001°27'0 0.0
2018-Jul-19 11:54N 54°59' W 001°27'0 0.0
2018-Jul-19 11:30N 54°59' W 001°27'0 0.0
2018-Jul-19 11:00N 54°59' W 001°27'0 0.0
2018-Jul-19 10:30N 54°59' W 001°27'0 0.0
2018-Jul-19 10:00N 54°59' W 001°27'0 0.0
2018-Jul-19 09:30N 54°59' W 001°27'0 0.0
2018-Jul-19 09:00N 54°59' W 001°27'0 0.0
2018-Jul-19 08:30N 54°59' W 001°27'1 2.2
2018-Jul-19 08:00N 55°00' W 001°26'612.4
2018-Jul-19 07:30N 54°59' W 001°16'10417.4
2018-Jul-19 01:30N 54°01' E 001°13'2014.9
2018-Jul-19 00:11N 53°49' E 001°39'414.3
2018-Jul-18 23:56N 53°47' E 001°45'814.4
2018-Jul-18 23:24N 53°44' E 001°57'615.0
2018-Jul-18 22:58N 53°41' E 002°06'916.3
2018-Jul-18 22:26N 53°36' E 002°19'715.3
2018-Jul-18 21:59N 53°32' E 002°28'1015.0
2018-Jul-18 21:18N 53°25' E 002°41'515.5
2018-Jul-18 21:00N 53°22' E 002°47'1115.7
2018-Jul-18 20:16N 53°15' E 003°01'915.9
2018-Jul-18 19:43N 53°09' E 003°13'315.9
2018-Jul-18 19:30N 53°07' E 003°17'815.8
2018-Jul-18 19:00N 53°02' E 003°28'815.8
2018-Jul-18 18:30N 52°57' E 003°38'815.8
2018-Jul-18 18:00N 52°52' E 003°48'815.6
2018-Jul-18 17:30N 52°47' E 003°58'815.4
2018-Jul-18 17:00N 52°41' E 004°06'815.3
2018-Jul-18 16:30N 52°36' E 004°16'815.0
2018-Jul-18 16:00N 52°31' E 004°25'713.3
2018-Jul-18 15:31N 52°28' E 004°34'1 1.1
2018-Jul-18 15:00N 52°28' E 004°35'0 0.0
2018-Jul-18 14:29N 52°28' E 004°35'0 0.0
2018-Jul-18 13:30N 52°28' E 004°35'0 0.0
2018-Jul-18 13:00N 52°28' E 004°35'0 0.0
2018-Jul-18 12:30N 52°28' E 004°35'0 0.0
2018-Jul-18 12:00N 52°28' E 004°35'0 0.0
2018-Jul-18 11:30N 52°28' E 004°35'0 0.0
2018-Jul-18 10:30N 52°28' E 004°35'0 0.0
2018-Jul-18 10:00N 52°28' E 004°35'0 0.0
2018-Jul-18 09:30N 52°28' E 004°35'0 0.0
2018-Jul-18 09:00N 52°28' E 004°35'0 0.0
2018-Jul-18 08:30N 52°28' E 004°35'0 0.0
2018-Jul-18 08:00N 52°28' E 004°35'0 0.1
2018-Jul-18 07:30N 52°28' E 004°35'5 9.5
2018-Jul-18 07:01N 52°29' E 004°28'714.7
2018-Jul-18 06:30N 52°35' E 004°19'814.7
2018-Jul-18 05:59N 52°40' E 004°10'1015.2
2018-Jul-18 05:21N 52°46' E 003°58'615.3
2018-Jul-18 04:58N 52°50' E 003°50'815.3
2018-Jul-18 04:28N 52°55' E 003°41'715.3
2018-Jul-18 04:01N 52°59' E 003°32'915.4
2018-Jul-18 03:24N 53°06' E 003°20'615.4
2018-Jul-18 02:59N 53°09' E 003°11'815.7
2018-Jul-18 02:30N 53°13' E 003°01'815.9
2018-Jul-18 02:01N 53°18' E 002°50'816.1
2018-Jul-18 01:31N 53°23' E 002°39'816.3
2018-Jul-18 01:01N 53°28' E 002°28'916.4
2018-Jul-18 00:28N 53°33' E 002°16'15318.6
2018-Jul-17 16:15N 54°59' W 001°19'410.0
2018-Jul-17 15:49N 54°60' W 001°27'0 0.1
2018-Jul-17 09:07N 54°59' W 001°27'0 0.0
2018-Jul-17 08:55N 54°59' W 001°27'0 0.0
2018-Jul-17 08:22N 54°59' W 001°27'0 0.0
2018-Jul-17 08:00N 54°59' W 001°27'3 7.0
2018-Jul-17 07:30N 55°01' W 001°21'918.2
2018-Jul-17 07:00N 54°56' W 001°08'15616.5
2018-Jul-16 21:33N 53°29' E 002°33'214.4
2018-Jul-16 21:24N 53°27' E 002°36'614.8
2018-Jul-16 21:00N 53°24' E 002°43'1615.2
2018-Jul-16 19:59N 53°14' E 003°04'815.7
2018-Jul-16 19:30N 53°09' E 003°13'816.2
2018-Jul-16 19:00N 53°04' E 003°23'816.4
2018-Jul-16 18:30N 52°59' E 003°34'816.5
2018-Jul-16 18:00N 52°53' E 003°45'816.6
2018-Jul-16 17:30N 52°48' E 003°55'1216.5
2018-Jul-16 16:46N 52°40' E 004°10'616.2
2018-Jul-16 16:24N 52°36' E 004°18'615.9
2018-Jul-16 16:00N 52°32' E 004°25'713.9
2018-Jul-16 15:30N 52°28' E 004°34'0 0.9
2018-Jul-16 15:00N 52°28' E 004°35'0 0.0
2018-Jul-16 14:31N 52°28' E 004°35'0 0.0
2018-Jul-16 14:00N 52°28' E 004°35'0 0.0
2018-Jul-16 13:30N 52°28' E 004°35'0 0.0
2018-Jul-16 13:00N 52°28' E 004°35'0 0.0
2018-Jul-16 12:31N 52°28' E 004°35'0 0.0
2018-Jul-16 12:00N 52°28' E 004°35'0 0.0
2018-Jul-16 11:30N 52°28' E 004°35'0 0.0
2018-Jul-16 11:00N 52°28' E 004°35'0 0.0
2018-Jul-16 10:31N 52°28' E 004°35'0 0.0
2018-Jul-16 10:00N 52°28' E 004°35'0 0.0
2018-Jul-16 09:30N 52°28' E 004°35'0 0.0
2018-Jul-16 09:00N 52°28' E 004°35'0 0.0
2018-Jul-16 08:30N 52°28' E 004°35'0 0.0
2018-Jul-16 08:00N 52°28' E 004°35'0 0.1
2018-Jul-16 07:30N 52°28' E 004°35'3 7.0
2018-Jul-16 07:00N 52°29' E 004°30'612.0
2018-Jul-16 06:30N 52°33' E 004°22'713.7
2018-Jul-16 06:00N 52°38' E 004°14'715.0
2018-Jul-16 05:30N 52°42' E 004°05'815.0
2018-Jul-16 05:00N 52°47' E 003°55'814.9
2018-Jul-16 04:30N 52°52' E 003°46'714.3
2018-Jul-16 04:00N 52°57' E 003°37'816.1
2018-Jul-16 03:30N 53°02' E 003°27'917.0
2018-Jul-16 03:00N 53°07' E 003°15'816.9
2018-Jul-16 02:30N 53°12' E 003°04'917.0
2018-Jul-16 02:00N 53°17' E 002°52'817.2
2018-Jul-16 01:30N 53°22' E 002°41'917.1
2018-Jul-16 01:00N 53°27' E 002°29'917.1
2018-Jul-16 00:30N 53°32' E 002°18'917.1
2018-Jul-16 00:00N 53°37' E 002°06'917.7
2018-Jul-15 23:30N 53°42' E 001°54'917.9
2018-Jul-15 23:00N 53°48' E 001°41'918.1
2018-Jul-15 22:30N 53°53' E 001°29'918.4
2018-Jul-15 22:00N 53°58' E 001°17'918.3
2018-Jul-15 21:31N 54°04' E 001°05'918.5
2018-Jul-15 21:00N 54°09' E 000°51'918.5
2018-Jul-15 20:30N 54°14' E 000°38'918.7
2018-Jul-15 20:01N 54°19' E 000°25'1018.9
2018-Jul-15 19:30N 54°24' E 000°11'919.1
2018-Jul-15 19:01N 54°30' W 000°02'1019.1
2018-Jul-15 18:30N 54°35' W 000°16'4019.0
2018-Jul-15 16:24N 54°56' W 001°15'717.9
2018-Jul-15 16:01N 55°01' W 001°24'2 4.3
2018-Jul-15 15:30N 54°59' W 001°27'0 0.0
2018-Jul-15 12:00N 54°59' W 001°27'0 0.0
2018-Jul-15 11:24N 54°59' W 001°27'0 0.0
2018-Jul-15 11:00N 54°59' W 001°27'0 0.0
2018-Jul-15 10:30N 54°59' W 001°27'0 0.0
2018-Jul-15 10:00N 54°59' W 001°27'0 0.0
2018-Jul-15 09:30N 54°59' W 001°27'0 0.0
2018-Jul-15 09:00N 54°59' W 001°27'0 0.0
2018-Jul-15 08:30N 54°59' W 001°27'1 1.8
2018-Jul-15 07:58N 55°00' W 001°26'714.1
2018-Jul-15 07:30N 54°59' W 001°15'3617.0
2018-Jul-15 05:24N 54°38' W 000°24'616.3
2018-Jul-15 05:00N 54°35' W 000°15'816.3
2018-Jul-15 04:30N 54°30' W 000°04'816.4
2018-Jul-15 04:00N 54°25' E 000°08'816.7
2018-Jul-15 03:30N 54°21' E 000°20'1017.4
2018-Jul-15 02:55N 54°15' E 000°35'1018.1
2018-Jul-15 02:21N 54°10' E 000°50'1519.1
2018-Jul-15 01:33N 54°01' E 001°11'619.4
2018-Jul-15 01:15N 53°58' E 001°19'519.3
2018-Jul-15 01:00N 53°55' E 001°25'1018.3
2018-Jul-15 00:29N 53°49' E 001°38'816.8
2018-Jul-15 00:00N 53°45' E 001°51'816.4
2018-Jul-14 23:30N 53°42' E 002°03'815.9
2018-Jul-14 23:00N 53°38' E 002°15'815.2
2018-Jul-14 22:29N 53°33' E 002°25'714.5
2018-Jul-14 22:00N 53°28' E 002°34'714.5
2018-Jul-14 21:30N 53°24' E 002°43'914.6
2018-Jul-14 20:55N 53°18' E 002°54'814.4
2018-Jul-14 20:23N 53°13' E 003°04'514.5
2018-Jul-14 20:00N 53°09' E 003°11'814.7
2018-Jul-14 19:29N 53°05' E 003°21'815.0
2018-Jul-14 18:56N 52°59' E 003°31'1615.6
2018-Jul-14 17:56N 52°49' E 003°51'815.9
2018-Jul-14 17:24N 52°44' E 004°02'615.9
2018-Jul-14 16:59N 52°40' E 004°10'815.9
2018-Jul-14 16:30N 52°35' E 004°20'816.0
2018-Jul-14 16:00N 52°29' E 004°29'4 7.9
2018-Jul-14 15:30N 52°28' E 004°35'0 0.0
2018-Jul-14 15:00N 52°28' E 004°35'0 0.0
2018-Jul-14 14:30N 52°28' E 004°35'0 0.0
2018-Jul-14 13:30N 52°28' E 004°35'0 0.0
2018-Jul-14 12:59N 52°28' E 004°35'0 0.0
2018-Jul-14 12:30N 52°28' E 004°35'0 0.0
2018-Jul-14 12:00N 52°28' E 004°35'0 0.0
2018-Jul-14 11:30N 52°28' E 004°35'0 0.0
2018-Jul-14 11:00N 52°28' E 004°35'0 0.0
2018-Jul-14 10:30N 52°28' E 004°35'0 0.0
2018-Jul-14 10:00N 52°28' E 004°35'0 0.0
2018-Jul-14 09:30N 52°28' E 004°35'0 0.0
2018-Jul-14 09:00N 52°28' E 004°35'0 0.0
2018-Jul-14 08:30N 52°28' E 004°35'0 0.0
2018-Jul-14 08:00N 52°28' E 004°35'0 0.2
2018-Jul-14 07:30N 52°28' E 004°35'4 7.8
2018-Jul-14 07:00N 52°29' E 004°29'815.1
2018-Jul-14 06:30N 52°34' E 004°20'917.1
2018-Jul-14 06:00N 52°40' E 004°10'917.1
2018-Jul-14 05:29N 52°46' E 003°58'916.9
2018-Jul-14 04:58N 52°52' E 003°48'816.8
2018-Jul-14 04:30N 52°57' E 003°38'916.9
2018-Jul-14 03:57N 53°02' E 003°26'818.6
2018-Jul-14 03:30N 53°07' E 003°15'6318.0
2018-Jul-14 00:00N 53°44' E 001°49'3518.1
2018-Jul-13 22:04N 54°05' E 001°01'218.5
2018-Jul-13 21:56N 54°06' E 000°58'818.5
2018-Jul-13 21:30N 54°11' E 000°46'918.3
2018-Jul-13 21:00N 54°16' E 000°33'917.4
2018-Jul-13 20:30N 54°20' E 000°21'917.1
2018-Jul-13 20:00N 54°25' E 000°09'917.4
2018-Jul-13 19:30N 54°30' W 000°04'917.6
2018-Jul-13 19:00N 54°35' W 000°16'918.0
2018-Jul-13 18:30N 54°40' W 000°29'3318.4
2018-Jul-13 16:41N 54°59' W 001°18'317.9
2018-Jul-13 16:30N 55°00' W 001°22'3 5.8
2018-Jul-13 16:00N 54°59' W 001°27'0 0.0
2018-Jul-13 15:30N 54°59' W 001°27'0 0.0
2018-Jul-13 14:57N 54°59' W 001°27'0 0.0
2018-Jul-13 13:57N 54°59' W 001°27'0 0.0
2018-Jul-13 13:27N 54°59' W 001°27'0 0.0
2018-Jul-13 13:00N 54°59' W 001°27'0 0.0
2018-Jul-13 08:57N 54°59' W 001°27'0 0.0
2018-Jul-13 08:17N 54°59' W 001°27'1 2.4
2018-Jul-13 07:57N 55°00' W 001°27'410.0
2018-Jul-13 07:30N 55°00' W 001°19'917.1
2018-Jul-13 07:00N 54°55' W 001°06'3016.9
2018-Jul-13 05:14N 54°38' W 000°24'516.8
2018-Jul-13 04:55N 54°35' W 000°16'716.7
2018-Jul-13 04:30N 54°31' W 000°07'816.4
2018-Jul-13 04:00N 54°27' E 000°05'816.6
2018-Jul-13 03:30N 54°22' E 000°17'916.6
2018-Jul-13 02:58N 54°17' E 000°30'11717.8
2018-Jul-12 20:24N 53°10' E 003°11'715.2
2018-Jul-12 19:55N 53°05' E 003°20'614.3
2018-Jul-12 19:30N 53°01' E 003°28'714.3
2018-Jul-12 19:00N 52°56' E 003°36'714.4
2018-Jul-12 18:30N 52°51' E 003°45'714.5
2018-Jul-12 18:00N 52°47' E 003°55'714.8
2018-Jul-12 17:30N 52°42' E 004°04'815.0
2018-Jul-12 17:00N 52°38' E 004°14'815.2
2018-Jul-12 16:30N 52°32' E 004°23'714.9
2018-Jul-12 16:00N 52°28' E 004°33'1 2.4
2018-Jul-12 15:27N 52°28' E 004°35'0 0.0
2018-Jul-12 15:00N 52°28' E 004°35'0 0.0
2018-Jul-12 14:28N 52°28' E 004°35'0 0.0
2018-Jul-12 13:58N 52°28' E 004°35'0 0.0
2018-Jul-12 13:28N 52°28' E 004°35'0 0.0
2018-Jul-12 12:58N 52°28' E 004°35'0 0.0
2018-Jul-12 12:28N 52°28' E 004°35'0 0.0
2018-Jul-12 11:58N 52°28' E 004°35'0 0.0
2018-Jul-12 11:28N 52°28' E 004°35'0 0.0
2018-Jul-12 10:58N 52°28' E 004°35'0 0.0
2018-Jul-12 10:28N 52°28' E 004°35'0 0.0
2018-Jul-12 09:58N 52°28' E 004°35'0 0.0
2018-Jul-12 09:28N 52°28' E 004°35'0 0.0
2018-Jul-12 08:58N 52°28' E 004°35'0 0.0
2018-Jul-12 08:28N 52°28' E 004°35'0 0.0
2018-Jul-12 07:58N 52°28' E 004°35'0 0.0
2018-Jul-12 07:30N 52°28' E 004°35'3 6.5
2018-Jul-12 07:00N 52°28' E 004°30'  

Dump ship's entire track history